createdAt,value
2022-12-09T00:00:42.640Z,4.59
2022-12-09T00:03:09.343Z,4.57
2022-12-09T00:05:39.259Z,4.56
2022-12-09T00:08:05.798Z,4.56
2022-12-09T00:10:32.453Z,4.58
2022-12-09T00:12:58.963Z,4.57
2022-12-09T00:15:25.341Z,4.60
2022-12-09T00:17:51.884Z,4.60
2022-12-09T00:20:18.449Z,4.62
2022-12-09T00:22:44.983Z,4.60
2022-12-09T00:25:11.296Z,4.62
2022-12-09T00:27:37.804Z,4.59
2022-12-09T00:30:05.260Z,4.56
2022-12-09T00:32:32.289Z,4.52
2022-12-09T00:34:58.859Z,4.49
2022-12-09T00:37:25.467Z,4.47
2022-12-09T00:39:51.957Z,4.47
2022-12-09T00:42:18.345Z,4.42
2022-12-09T00:44:44.745Z,4.42
2022-12-09T00:47:11.113Z,4.40
2022-12-09T00:49:37.630Z,4.42
2022-12-09T00:52:04.209Z,4.44
2022-12-09T00:54:30.822Z,4.48
2022-12-09T00:56:57.530Z,4.51
2022-12-09T00:59:24.079Z,4.55
2022-12-09T01:01:50.706Z,4.59
2022-12-09T01:04:17.489Z,4.63
2022-12-09T01:06:44.226Z,4.67
2022-12-09T01:09:10.887Z,4.71
2022-12-09T01:11:37.370Z,4.73
2022-12-09T01:14:04.160Z,4.75
2022-12-09T01:16:33.656Z,4.77
2022-12-09T01:19:03.679Z,4.78
2022-12-09T01:21:30.658Z,4.80
2022-12-09T01:23:57.489Z,4.79
2022-12-09T01:26:24.255Z,4.76
2022-12-09T01:28:52.855Z,4.73
2022-12-09T01:31:22.499Z,4.70
2022-12-09T01:33:49.893Z,4.66
2022-12-09T01:36:19.173Z,4.61
2022-12-09T01:38:46.642Z,4.56
2022-12-09T01:41:14.927Z,4.51
2022-12-09T01:43:42.085Z,4.50
2022-12-09T01:46:09.131Z,4.49
2022-12-09T01:48:42.392Z,4.45
2022-12-09T01:51:15.722Z,4.43
2022-12-09T01:53:45.237Z,4.41
2022-12-09T01:56:27.205Z,4.36
2022-12-09T01:58:54.987Z,4.35
2022-12-09T02:01:22.398Z,4.32
2022-12-09T02:03:49.797Z,4.28
2022-12-09T02:06:16.909Z,4.24
2022-12-09T02:08:45.018Z,4.19
2022-12-09T02:11:29.522Z,4.10
2022-12-09T02:14:15.838Z,4.07
2022-12-09T02:17:05.899Z,4.02
2022-12-09T02:20:01.452Z,3.99
2022-12-09T02:23:01.376Z,3.98
2022-12-09T02:25:50.354Z,3.98
2022-12-09T02:28:17.125Z,4.00
2022-12-09T02:31:22.544Z,3.95
2022-12-09T02:34:06.068Z,3.96
2022-12-09T02:36:54.489Z,3.95
2022-12-09T02:39:28.414Z,3.98
2022-12-09T02:41:58.368Z,4.03
2022-12-09T02:44:26.958Z,4.07
2022-12-09T02:46:55.402Z,4.10
2022-12-09T02:49:24.110Z,4.14
2022-12-09T02:51:51.530Z,4.17
2022-12-09T02:54:19.919Z,4.21
2022-12-09T02:56:54.108Z,4.23
2022-12-09T02:59:21.252Z,4.29
2022-12-09T03:02:28.256Z,4.31
2022-12-09T03:05:10.234Z,4.36
2022-12-09T03:08:02.103Z,4.37
2022-12-09T03:10:52.388Z,4.43
2022-12-09T03:13:37.759Z,4.42
2022-12-09T03:16:43.420Z,4.43
2022-12-09T03:19:18.534Z,4.48
2022-12-09T03:21:48.028Z,4.51
2022-12-09T03:24:20.681Z,4.51
2022-12-09T03:26:48.732Z,4.54
2022-12-09T03:29:21.963Z,4.53
2022-12-09T03:31:50.882Z,4.55
2022-12-09T03:34:22.749Z,4.54
2022-12-09T03:36:52.049Z,4.55
2022-12-09T03:39:24.100Z,4.53
2022-12-09T03:41:57.694Z,4.52
2022-12-09T03:44:34.892Z,4.52
2022-12-09T03:47:03.332Z,4.55
2022-12-09T03:49:30.217Z,4.56
2022-12-09T03:52:18.941Z,4.55
2022-12-09T03:54:47.919Z,4.56
2022-12-09T03:57:18.976Z,4.56
2022-12-09T04:00:01.519Z,4.55
2022-12-09T04:02:29.336Z,4.56
2022-12-09T04:04:56.265Z,4.56
2022-12-09T04:07:22.999Z,4.55
2022-12-09T04:09:49.908Z,4.52
2022-12-09T04:12:16.864Z,4.49
2022-12-09T04:14:43.437Z,4.46
2022-12-09T04:17:11.400Z,4.43
2022-12-09T04:19:38.194Z,4.39
2022-12-09T04:22:04.821Z,4.33
2022-12-09T04:24:31.343Z,4.27
2022-12-09T04:26:58.077Z,4.22
2022-12-09T04:29:24.571Z,4.16
2022-12-09T04:31:51.190Z,4.13
2022-12-09T04:34:18.085Z,4.08
2022-12-09T04:36:44.950Z,4.06
2022-12-09T04:39:11.947Z,4.03
2022-12-09T04:41:38.896Z,4.02
2022-12-09T04:44:05.927Z,4.03
2022-12-09T04:46:33.090Z,4.04
2022-12-09T04:48:59.926Z,4.03
2022-12-09T04:51:26.852Z,4.04
2022-12-09T04:53:53.841Z,4.04
2022-12-09T04:56:22.345Z,4.03
2022-12-09T04:58:50.738Z,4.03
2022-12-09T05:01:24.790Z,4.00
2022-12-09T05:03:54.971Z,4.00
2022-12-09T05:06:22.258Z,3.97
2022-12-09T05:08:49.380Z,3.94
2022-12-09T05:11:18.107Z,3.93
2022-12-09T05:13:45.420Z,3.91
2022-12-09T05:16:16.871Z,3.89
2022-12-09T05:18:45.581Z,3.89
2022-12-09T05:21:15.242Z,3.91
2022-12-09T05:23:42.399Z,3.94
2022-12-09T05:26:12.553Z,3.95
2022-12-09T05:28:39.562Z,3.99
2022-12-09T05:31:10.063Z,4.01
2022-12-09T05:33:37.838Z,4.03
2022-12-09T05:36:08.805Z,4.02
2022-12-09T05:38:35.447Z,4.02
2022-12-09T05:41:02.281Z,4.01
2022-12-09T05:43:28.918Z,4.00
2022-12-09T05:45:55.989Z,3.98
2022-12-09T05:48:22.880Z,3.97
2022-12-09T05:50:59.559Z,3.94
2022-12-09T05:53:26.714Z,3.96
2022-12-09T05:55:54.134Z,3.96
2022-12-09T05:58:21.104Z,3.95
2022-12-09T06:00:48.509Z,3.94
2022-12-09T06:03:16.131Z,3.92
2022-12-09T06:05:43.307Z,3.90
2022-12-09T06:08:10.065Z,3.86
2022-12-09T06:10:41.400Z,3.83
2022-12-09T06:13:08.663Z,3.82
2022-12-09T06:15:35.894Z,3.79
2022-12-09T06:18:03.193Z,3.75
2022-12-09T06:20:30.604Z,3.74
2022-12-09T06:22:57.610Z,3.73
2022-12-09T06:25:24.211Z,3.72
2022-12-09T06:27:52.718Z,3.72
2022-12-09T06:30:19.797Z,3.72
2022-12-09T06:32:46.786Z,3.72
2022-12-09T06:35:14.163Z,3.70
2022-12-09T06:37:41.662Z,3.70
2022-12-09T06:40:09.287Z,3.69
2022-12-09T06:42:36.344Z,3.68
2022-12-09T06:45:03.906Z,3.68
2022-12-09T06:47:30.628Z,3.66
2022-12-09T06:50:04.358Z,3.63
2022-12-09T06:52:32.904Z,3.60
2022-12-09T06:54:59.442Z,3.56
2022-12-09T06:57:26.244Z,3.53
2022-12-09T06:59:53.028Z,3.49
2022-12-09T07:02:19.769Z,3.47
2022-12-09T07:04:47.054Z,3.44
2022-12-09T07:07:15.140Z,3.44
2022-12-09T07:09:41.932Z,3.42
2022-12-09T07:12:08.605Z,3.42
2022-12-09T07:14:36.374Z,3.42
2022-12-09T07:17:03.900Z,3.43
2022-12-09T07:19:31.354Z,3.41
2022-12-09T07:21:58.032Z,3.41
2022-12-09T07:24:25.411Z,3.39
2022-12-09T07:26:52.091Z,3.37
2022-12-09T07:29:19.503Z,3.35
2022-12-09T07:31:47.703Z,3.33
2022-12-09T07:34:14.523Z,3.33
2022-12-09T07:36:41.367Z,3.33
2022-12-09T07:39:12.100Z,3.33
2022-12-09T07:41:39.446Z,3.35
2022-12-09T07:44:06.228Z,3.37
2022-12-09T07:46:33.226Z,3.39
2022-12-09T07:49:02.775Z,3.43
2022-12-09T07:51:29.717Z,3.48
2022-12-09T07:53:56.486Z,3.55
2022-12-09T07:56:24.026Z,3.58
2022-12-09T07:58:53.342Z,3.62
2022-12-09T08:01:26.726Z,3.66
2022-12-09T08:03:54.202Z,3.71
2022-12-09T08:06:24.809Z,3.75
2022-12-09T08:08:51.986Z,3.80
2022-12-09T08:11:25.241Z,3.85
2022-12-09T08:13:52.601Z,3.91
2022-12-09T08:16:21.521Z,3.96
2022-12-09T08:18:50.449Z,4.00
2022-12-09T08:21:29.262Z,4.03
2022-12-09T08:23:58.272Z,4.08
2022-12-09T08:26:27.278Z,4.12
2022-12-09T08:28:54.158Z,4.14
2022-12-09T08:31:23.427Z,4.15
2022-12-09T08:33:50.995Z,4.16
2022-12-09T08:36:26.377Z,4.18
2022-12-09T08:38:53.088Z,4.22
2022-12-09T08:41:38.557Z,4.24
2022-12-09T08:44:09.822Z,4.28
2022-12-09T08:46:38.475Z,4.34
2022-12-09T08:49:06.401Z,4.37
2022-12-09T08:51:34.096Z,4.39
2022-12-09T08:54:01.418Z,4.41
2022-12-09T08:56:28.511Z,4.41
2022-12-09T08:58:55.829Z,4.42
2022-12-09T09:01:32.256Z,4.43
2022-12-09T09:04:05.532Z,4.41
2022-12-09T09:06:35.161Z,4.43
2022-12-09T09:09:02.024Z,4.46
2022-12-09T09:11:28.790Z,4.46
2022-12-09T09:13:55.387Z,4.47
2022-12-09T09:16:24.041Z,4.49
2022-12-09T09:18:51.138Z,4.51
2022-12-09T09:21:21.004Z,4.53
2022-12-09T09:23:48.220Z,4.56
2022-12-09T09:26:20.760Z,4.59
2022-12-09T09:28:48.061Z,4.64
2022-12-09T09:31:17.612Z,4.67
2022-12-09T09:33:45.117Z,4.71
2022-12-09T09:36:14.993Z,4.72
2022-12-09T09:38:41.801Z,4.75
2022-12-09T09:41:20.445Z,4.72
2022-12-09T09:43:47.836Z,4.73
2022-12-09T09:46:33.327Z,4.65
2022-12-09T09:49:01.589Z,4.62
2022-12-09T09:51:28.652Z,4.57
2022-12-09T09:53:55.539Z,4.54
2022-12-09T09:56:36.836Z,4.52
2022-12-09T09:59:16.183Z,4.55
2022-12-09T10:01:49.703Z,4.56
2022-12-09T10:04:59.052Z,4.60
2022-12-09T10:07:31.349Z,4.66
2022-12-09T10:10:17.806Z,4.66
2022-12-09T10:13:18.492Z,4.66
2022-12-09T10:16:14.434Z,4.69
2022-12-09T10:19:07.695Z,4.73
2022-12-09T10:21:41.080Z,4.78
2022-12-09T10:24:26.020Z,4.82
2022-12-09T10:27:12.650Z,4.86
2022-12-09T10:29:56.655Z,4.91
2022-12-09T10:32:26.773Z,4.95
2022-12-09T10:34:53.425Z,5.00
2022-12-09T10:37:35.215Z,5.01
2022-12-09T10:40:08.038Z,5.08
2022-12-09T10:43:13.793Z,5.10
2022-12-09T10:48:44.591Z,5.19
2022-12-09T10:51:25.975Z,5.23
2022-12-09T10:54:19.345Z,5.25
2022-12-09T10:57:29.044Z,5.31
2022-12-09T11:00:07.675Z,5.38
2022-12-09T11:02:34.840Z,5.41
2022-12-09T11:05:20.042Z,5.37
2022-12-09T11:07:51.558Z,5.38
2022-12-09T11:10:22.339Z,5.37
2022-12-09T11:12:57.307Z,5.37
2022-12-09T11:15:28.653Z,5.37
2022-12-09T11:18:08.013Z,5.37
2022-12-09T11:20:35.945Z,5.39
2022-12-09T11:23:05.399Z,5.40
2022-12-09T11:25:36.090Z,5.38
2022-12-09T11:28:30.560Z,5.35
2022-12-09T11:33:58.627Z,5.39
2022-12-09T11:36:30.980Z,5.39
2022-12-09T11:39:30.178Z,5.39
2022-12-09T11:42:18.589Z,5.43
2022-12-09T11:45:16.021Z,5.41
2022-12-09T11:48:23.040Z,5.46
2022-12-09T11:50:42.135Z,5.48
2022-12-09T11:53:11.500Z,5.48
2022-12-09T11:55:46.391Z,5.50
2022-12-09T11:58:21.187Z,5.50
2022-12-09T12:01:10.549Z,5.47
2022-12-09T12:03:42.089Z,5.51
2022-12-09T12:06:27.155Z,5.49
2022-12-09T12:09:04.499Z,5.52
2022-12-09T12:11:44.908Z,5.52
2022-12-09T12:14:16.791Z,5.55
2022-12-09T12:16:57.210Z,5.55
2022-12-09T12:19:40.620Z,5.56
2022-12-09T12:22:20.392Z,5.58
2022-12-09T12:25:18.310Z,5.60
2022-12-09T12:28:03.316Z,5.60
2022-12-09T12:30:39.708Z,5.60
2022-12-09T12:36:31.599Z,5.61
2022-12-09T12:38:57.874Z,5.63
2022-12-09T12:41:42.800Z,5.58
2022-12-09T12:44:56.244Z,5.58
2022-12-09T12:48:08.115Z,5.58
2022-12-09T12:53:16.153Z,5.61
2022-12-09T12:55:57.821Z,5.56
2022-12-09T12:59:02.745Z,5.53
2022-12-09T13:01:41.240Z,5.52
2022-12-09T13:04:31.547Z,5.46
2022-12-09T13:07:09.692Z,5.45
2022-12-09T13:09:48.232Z,5.45
2022-12-09T13:12:45.352Z,5.44
2022-12-09T13:15:18.184Z,5.47
2022-12-09T13:17:47.953Z,5.50
2022-12-09T13:20:44.081Z,5.48
2022-12-09T13:23:27.935Z,5.50
2022-12-09T13:26:24.888Z,5.51
2022-12-09T13:29:06.264Z,5.57
2022-12-09T13:31:38.021Z,5.58
2022-12-09T13:34:26.265Z,5.58
2022-12-09T13:36:52.667Z,5.57
2022-12-09T13:39:40.879Z,5.53
2022-12-09T13:42:46.350Z,5.53
2022-12-09T13:45:25.097Z,5.55
2022-12-09T13:47:55.563Z,5.56
2022-12-09T13:50:36.198Z,5.49
2022-12-09T13:53:07.457Z,5.51
2022-12-09T13:55:39.782Z,5.50
2022-12-09T13:58:06.079Z,5.52
2022-12-09T14:00:33.788Z,5.53
2022-12-09T14:03:12.194Z,5.55
2022-12-09T14:05:40.039Z,5.56
2022-12-09T14:08:20.908Z,5.53
2022-12-09T14:10:50.232Z,5.52
2022-12-09T14:13:29.511Z,5.45
2022-12-09T14:16:26.333Z,5.41
2022-12-09T14:18:52.880Z,5.43
2022-12-09T14:21:19.309Z,5.39
2022-12-09T14:24:07.235Z,5.32
2022-12-09T14:26:40.235Z,5.30
2022-12-09T14:29:06.555Z,5.28
2022-12-09T14:31:49.727Z,5.24
2022-12-09T14:34:25.688Z,5.21
2022-12-09T14:37:02.270Z,5.16
2022-12-09T14:39:36.900Z,5.08
2022-12-09T14:42:35.156Z,5.02
2022-12-09T14:45:01.488Z,5.01
2022-12-09T14:47:38.362Z,4.95
2022-12-09T14:50:12.912Z,4.94
2022-12-09T14:52:57.725Z,4.89
2022-12-09T14:55:26.146Z,4.90
2022-12-09T14:57:55.781Z,4.88
2022-12-09T15:00:40.703Z,4.86
2022-12-09T15:03:44.921Z,4.85
2022-12-09T15:06:16.735Z,4.86
2022-12-09T15:08:43.254Z,4.87
2022-12-09T15:11:16.572Z,4.83
2022-12-09T15:13:46.274Z,4.85
2022-12-09T15:16:16.303Z,4.82
2022-12-09T15:18:44.696Z,4.83
2022-12-09T15:21:22.380Z,4.80
2022-12-09T15:23:48.824Z,4.81
2022-12-09T15:26:22.111Z,4.77
2022-12-09T15:28:50.440Z,4.77
2022-12-09T15:31:23.051Z,4.75
2022-12-09T15:33:52.072Z,4.73
2022-12-09T15:36:27.446Z,4.67
2022-12-09T15:39:01.167Z,4.64
2022-12-09T15:41:53.968Z,4.62
2022-12-09T15:44:24.529Z,4.57
2022-12-09T15:46:52.814Z,4.55
2022-12-09T15:49:25.167Z,4.51
2022-12-09T15:51:55.219Z,4.50
2022-12-09T15:54:26.935Z,4.46
2022-12-09T15:56:59.818Z,4.40
2022-12-09T15:59:31.455Z,4.38
2022-12-09T16:01:59.287Z,4.36
2022-12-09T16:04:34.947Z,4.28
2022-12-09T16:07:06.836Z,4.23
2022-12-09T16:09:35.230Z,4.21
2022-12-09T16:12:02.060Z,4.16
2022-12-09T16:14:44.275Z,4.10
2022-12-09T16:17:21.692Z,4.04
2022-12-09T16:19:48.257Z,4.01
2022-12-09T16:22:14.835Z,3.95
2022-12-09T16:25:14.615Z,3.85
2022-12-09T16:27:45.924Z,3.82
2022-12-09T16:30:14.652Z,3.77
2022-12-09T16:32:47.875Z,3.73
2022-12-09T16:35:17.407Z,3.70
2022-12-09T16:38:09.659Z,3.67
2022-12-09T16:40:45.424Z,3.68
2022-12-09T16:43:17.756Z,3.69
2022-12-09T16:46:16.733Z,3.67
2022-12-09T16:48:43.267Z,3.71
2022-12-09T16:51:13.980Z,3.71
2022-12-09T16:53:46.313Z,3.71
2022-12-09T16:56:33.573Z,3.71
2022-12-09T16:59:00.030Z,3.74
2022-12-09T17:01:35.173Z,3.73
2022-12-09T17:04:24.250Z,3.73
2022-12-09T17:06:50.933Z,3.72
2022-12-09T17:09:17.472Z,3.70
2022-12-09T17:11:48.573Z,3.68
2022-12-09T17:14:15.657Z,3.64
2022-12-09T17:16:42.116Z,3.62
2022-12-09T17:19:08.649Z,3.60
2022-12-09T17:21:35.014Z,3.57
2022-12-09T17:24:01.545Z,3.57
2022-12-09T17:26:27.882Z,3.55
2022-12-09T17:28:59.819Z,3.55
2022-12-09T17:31:28.179Z,3.56
2022-12-09T17:33:57.155Z,3.55
2022-12-09T17:36:24.766Z,3.52
2022-12-09T17:38:51.485Z,3.52
2022-12-09T17:41:23.521Z,3.52
2022-12-09T17:43:50.218Z,3.49
2022-12-09T17:46:16.782Z,3.49
2022-12-09T17:48:43.482Z,3.48
2022-12-09T17:51:12.491Z,3.48
2022-12-09T17:53:40.798Z,3.47
2022-12-09T17:56:13.014Z,3.48
2022-12-09T17:58:39.851Z,3.50
2022-12-09T18:01:17.484Z,3.49
2022-12-09T18:04:02.888Z,3.51
2022-12-09T18:06:34.536Z,3.52
2022-12-09T18:09:02.981Z,3.52
2022-12-09T18:11:29.575Z,3.54
2022-12-09T18:13:56.095Z,3.54
2022-12-09T18:16:22.674Z,3.57
2022-12-09T18:18:49.708Z,3.59
2022-12-09T18:21:16.797Z,3.62
2022-12-09T18:23:43.724Z,3.63
2022-12-09T18:26:13.479Z,3.64
2022-12-09T18:28:40.156Z,3.64
2022-12-09T18:31:08.133Z,3.63
2022-12-09T18:33:34.919Z,3.62
2022-12-09T18:36:06.096Z,3.61
2022-12-09T18:38:32.613Z,3.62
2022-12-09T18:41:01.623Z,3.61
2022-12-09T18:43:37.960Z,3.58
2022-12-09T18:46:25.915Z,3.57
2022-12-09T18:49:05.492Z,3.57
2022-12-09T18:51:32.669Z,3.58
2022-12-09T18:54:00.148Z,3.58
2022-12-09T18:56:27.736Z,3.57
2022-12-09T18:59:10.220Z,3.57
2022-12-09T19:01:40.330Z,3.57
2022-12-09T19:04:11.272Z,3.55
2022-12-09T19:06:39.325Z,3.55
2022-12-09T19:09:08.722Z,3.54
2022-12-09T19:11:37.400Z,3.55
2022-12-09T19:14:05.490Z,3.57
2022-12-09T19:16:32.385Z,3.56
2022-12-09T19:19:03.838Z,3.58
2022-12-09T19:21:34.357Z,3.60
2022-12-09T19:24:00.664Z,3.62
2022-12-09T19:26:31.805Z,3.63
2022-12-09T19:29:01.026Z,3.64
2022-12-09T19:31:30.167Z,3.67
2022-12-09T19:34:01.698Z,3.69
2022-12-09T19:36:29.933Z,3.71
2022-12-09T19:38:58.069Z,3.73
2022-12-09T19:41:24.419Z,3.76
2022-12-09T19:43:55.345Z,3.81
2022-12-09T19:46:22.256Z,3.86
2022-12-09T19:48:48.858Z,3.89
2022-12-09T19:51:17.166Z,3.92
2022-12-09T19:53:43.869Z,3.97
2022-12-09T19:56:16.516Z,3.98
2022-12-09T19:58:43.830Z,4.02
2022-12-09T20:01:19.473Z,4.05
2022-12-09T20:03:47.902Z,4.07
2022-12-09T20:06:16.224Z,4.11
2022-12-09T20:08:44.760Z,4.12
2022-12-09T20:11:23.776Z,4.11
2022-12-09T20:13:51.052Z,4.16
2022-12-09T20:16:20.333Z,4.16
2022-12-09T20:18:48.462Z,4.17
2022-12-09T20:21:17.799Z,4.18
2022-12-09T20:23:45.440Z,4.20
2022-12-09T20:26:32.507Z,4.18
2022-12-09T20:29:02.858Z,4.22
2022-12-09T20:31:31.590Z,4.24
2022-12-09T20:34:01.723Z,4.24
2022-12-09T20:36:30.695Z,4.22
2022-12-09T20:39:00.080Z,4.20
2022-12-09T20:41:28.017Z,4.20
2022-12-09T20:43:56.485Z,4.16
2022-12-09T20:46:29.599Z,4.14
2022-12-09T20:48:57.055Z,4.15
2022-12-09T20:51:34.801Z,4.12
2022-12-09T20:54:02.013Z,4.14
2022-12-09T20:56:29.840Z,4.13
2022-12-09T20:58:57.135Z,4.12
2022-12-09T21:01:31.174Z,4.08
2022-12-09T21:03:58.922Z,4.07
2022-12-09T21:06:29.340Z,4.09
2022-12-09T21:08:57.334Z,4.10
2022-12-09T21:11:25.162Z,4.09
2022-12-09T21:13:54.291Z,4.10
2022-12-09T21:16:25.244Z,4.11
2022-12-09T21:18:56.929Z,4.12
2022-12-09T21:21:25.253Z,4.15
2022-12-09T21:23:54.228Z,4.16
2022-12-09T21:26:22.710Z,4.14
2022-12-09T21:28:49.102Z,4.14
2022-12-09T21:31:22.696Z,4.10
2022-12-09T21:33:51.206Z,4.08
2022-12-09T21:36:24.052Z,4.04
2022-12-09T21:38:51.324Z,4.03
2022-12-09T21:41:21.163Z,4.02
2022-12-09T21:43:47.815Z,4.04
2022-12-09T21:46:20.585Z,4.03
2022-12-09T21:48:52.063Z,4.06
2022-12-09T21:51:20.201Z,4.06
2022-12-09T21:53:47.229Z,4.06
2022-12-09T21:56:22.165Z,4.06
2022-12-09T21:58:50.272Z,4.05
2022-12-09T22:01:28.710Z,4.01
2022-12-09T22:03:56.646Z,4.06
2022-12-09T22:06:23.806Z,4.07
2022-12-09T22:08:50.757Z,4.08
2022-12-09T22:11:20.714Z,4.07
2022-12-09T22:13:47.641Z,4.09
2022-12-09T22:16:26.883Z,4.06
2022-12-09T22:18:55.191Z,4.08
2022-12-09T22:21:25.484Z,4.08
2022-12-09T22:23:54.215Z,4.09
2022-12-09T22:26:21.231Z,4.11
2022-12-09T22:28:47.750Z,4.12
2022-12-09T22:31:23.211Z,4.13
2022-12-09T22:33:51.439Z,4.13
2022-12-09T22:36:19.035Z,4.14
2022-12-09T22:38:46.503Z,4.15
2022-12-09T22:41:15.719Z,4.16
2022-12-09T22:43:43.283Z,4.17
2022-12-09T22:46:12.896Z,4.16
2022-12-09T22:48:40.388Z,4.18
2022-12-09T22:51:10.680Z,4.16
2022-12-09T22:53:37.224Z,4.15
2022-12-09T22:56:04.133Z,4.14
2022-12-09T22:58:30.943Z,4.13
2022-12-09T23:00:57.357Z,4.10
2022-12-09T23:03:24.408Z,4.08
2022-12-09T23:05:50.980Z,4.07
2022-12-09T23:08:17.788Z,4.06
2022-12-09T23:10:44.161Z,4.05
2022-12-09T23:13:10.627Z,4.06
2022-12-09T23:15:37.240Z,4.07
2022-12-09T23:18:03.940Z,4.06
2022-12-09T23:20:30.281Z,4.06
2022-12-09T23:22:56.580Z,4.03
2022-12-09T23:25:23.126Z,4.00
2022-12-09T23:27:49.427Z,3.97
2022-12-09T23:30:15.840Z,3.96
2022-12-09T23:32:42.574Z,3.93
2022-12-09T23:35:09.414Z,3.91
2022-12-09T23:37:35.720Z,3.90
2022-12-09T23:40:02.081Z,3.89
2022-12-09T23:42:28.433Z,3.88
2022-12-09T23:44:54.751Z,3.88
2022-12-09T23:47:21.105Z,3.89
2022-12-09T23:49:47.423Z,3.90
2022-12-09T23:52:13.731Z,3.91
2022-12-09T23:54:40.146Z,3.91
2022-12-09T23:57:06.539Z,3.92
2022-12-09T23:59:32.852Z,3.93
